createdAt,value
2019-01-28T00:01:00.740Z,1.80
2019-01-28T00:03:30.431Z,1.80
2019-01-28T00:06:00.244Z,1.80
2019-01-28T00:08:29.998Z,1.90
2019-01-28T00:10:59.672Z,1.90
2019-01-28T00:13:29.373Z,1.90
2019-01-28T00:15:59.301Z,1.90
2019-01-28T00:18:28.963Z,1.90
2019-01-28T00:20:58.613Z,1.90
2019-01-28T00:23:28.360Z,2.00
2019-01-28T00:25:58.010Z,2.00
2019-01-28T00:28:27.664Z,1.90
2019-01-28T00:30:57.472Z,1.90
2019-01-28T00:33:27.196Z,1.90
2019-01-28T00:35:56.861Z,1.80
2019-01-28T00:38:27.814Z,1.80
2019-01-28T00:40:57.546Z,1.80
2019-01-28T00:43:27.241Z,1.70
2019-01-28T00:45:57.021Z,1.70
2019-01-28T00:48:26.710Z,1.70
2019-01-28T00:50:56.398Z,1.60
2019-01-28T00:53:26.199Z,1.60
2019-01-28T00:55:56.059Z,1.60
2019-01-28T00:58:25.744Z,1.60
2019-01-28T01:00:55.543Z,1.60
2019-01-28T01:03:25.200Z,1.50
2019-01-28T01:05:54.844Z,1.50
2019-01-28T01:08:24.671Z,1.50
2019-01-28T01:10:54.343Z,1.50
2019-01-28T01:13:24.012Z,1.50
2019-01-28T01:15:53.828Z,1.40
2019-01-28T01:18:23.512Z,1.40
2019-01-28T01:20:53.158Z,1.40
2019-01-28T01:23:23.024Z,1.40
2019-01-28T01:25:52.682Z,1.40
2019-01-28T01:28:22.366Z,1.40
2019-01-28T01:30:52.183Z,1.30
2019-01-28T01:33:21.886Z,1.30
2019-01-28T01:35:51.538Z,1.30
2019-01-28T01:38:21.360Z,1.30
2019-01-28T01:40:51.056Z,1.30
2019-01-28T01:43:20.707Z,1.30
2019-01-28T01:45:50.491Z,1.30
2019-01-28T01:48:20.262Z,1.30
2019-01-28T01:50:49.935Z,1.20
2019-01-28T01:53:19.741Z,1.20
2019-01-28T01:55:49.423Z,1.20
2019-01-28T01:58:19.127Z,1.20
2019-01-28T02:00:49.003Z,1.20
2019-01-28T02:03:18.747Z,1.20
2019-01-28T02:05:48.442Z,1.10
2019-01-28T02:08:18.245Z,1.20
2019-01-28T02:10:47.903Z,1.20
2019-01-28T02:13:17.711Z,1.20
2019-01-28T02:15:47.470Z,1.30
2019-01-28T02:18:17.143Z,1.40
2019-01-28T02:20:46.804Z,1.50
2019-01-28T02:23:16.595Z,1.50
2019-01-28T02:25:46.379Z,1.50
2019-01-28T02:28:16.032Z,1.40
2019-01-28T02:30:45.889Z,1.50
2019-01-28T02:33:15.633Z,1.40
2019-01-28T02:35:45.319Z,1.40
2019-01-28T02:38:15.106Z,1.50
2019-01-28T02:40:44.843Z,1.40
2019-01-28T02:43:14.486Z,1.30
2019-01-28T02:45:44.259Z,1.30
2019-01-28T02:48:13.928Z,1.30
2019-01-28T02:50:43.584Z,1.30
2019-01-28T02:53:13.442Z,1.40
2019-01-28T02:55:43.110Z,1.40
2019-01-28T02:58:12.834Z,1.30
2019-01-28T03:00:42.657Z,1.30
2019-01-28T03:03:12.326Z,1.30
2019-01-28T03:05:42.005Z,1.30
2019-01-28T03:08:11.815Z,1.40
2019-01-28T03:10:41.730Z,1.40
2019-01-28T03:13:11.358Z,1.50
2019-01-28T03:15:41.157Z,1.50
2019-01-28T03:18:10.795Z,1.40
2019-01-28T03:20:40.442Z,1.30
2019-01-28T03:23:11.669Z,1.30
2019-01-28T03:25:41.366Z,1.40
2019-01-28T03:28:11.031Z,1.30
2019-01-28T03:30:40.726Z,1.40
2019-01-28T03:33:10.379Z,1.50
2019-01-28T03:35:40.044Z,1.50
2019-01-28T03:38:09.881Z,1.50
2019-01-28T03:40:39.589Z,1.50
2019-01-28T03:43:09.421Z,1.60
2019-01-28T03:45:39.215Z,1.50
2019-01-28T03:48:08.902Z,1.60
2019-01-28T03:50:38.565Z,1.60
2019-01-28T03:53:08.681Z,1.70
2019-01-28T03:55:38.375Z,1.60
2019-01-28T03:58:08.063Z,1.60
2019-01-28T04:00:37.875Z,1.60
2019-01-28T04:03:07.553Z,1.70
2019-01-28T04:05:37.333Z,1.70
2019-01-28T04:08:07.145Z,1.70
2019-01-28T04:10:36.809Z,1.70
2019-01-28T04:13:06.627Z,1.80
2019-01-28T04:15:36.708Z,1.80
2019-01-28T04:18:06.363Z,1.80
2019-01-28T04:20:36.065Z,1.80
2019-01-28T04:23:08.805Z,1.90
2019-01-28T04:25:38.492Z,2.00
2019-01-28T04:28:08.214Z,2.10
2019-01-28T04:30:38.005Z,2.10
2019-01-28T04:33:07.701Z,2.00
2019-01-28T04:35:37.322Z,1.90
2019-01-28T04:38:07.151Z,1.90
2019-01-28T04:40:36.794Z,2.00
2019-01-28T04:43:06.649Z,2.10
2019-01-28T04:45:37.487Z,2.20
2019-01-28T04:48:07.282Z,2.30
2019-01-28T04:50:36.983Z,2.20
2019-01-28T04:53:06.870Z,2.20
2019-01-28T04:55:36.528Z,2.20
2019-01-28T04:58:06.299Z,2.30
2019-01-28T05:00:36.121Z,2.50
2019-01-28T05:03:05.994Z,2.50
2019-01-28T05:05:35.737Z,2.40
2019-01-28T05:08:05.531Z,2.40
2019-01-28T05:10:35.313Z,2.40
2019-01-28T05:13:05.057Z,2.50
2019-01-28T05:15:34.854Z,2.50
2019-01-28T05:18:04.671Z,2.40
2019-01-28T05:20:34.340Z,2.40
2019-01-28T05:23:04.060Z,2.40
2019-01-28T05:25:33.730Z,2.40
2019-01-28T05:28:03.392Z,2.40
2019-01-28T05:30:33.243Z,2.40
2019-01-28T05:33:02.906Z,2.30
2019-01-28T05:35:32.672Z,2.30
2019-01-28T05:38:02.500Z,2.30
2019-01-28T05:40:32.242Z,2.30
2019-01-28T05:43:02.050Z,2.20
2019-01-28T05:45:31.764Z,2.30
2019-01-28T05:48:01.416Z,2.20
2019-01-28T05:50:31.107Z,2.20
2019-01-28T05:53:00.852Z,2.20
2019-01-28T05:55:30.499Z,2.20
2019-01-28T05:58:00.188Z,2.10
2019-01-28T06:00:44.354Z,2.10
2019-01-28T06:03:14.092Z,2.10
2019-01-28T06:05:43.733Z,2.00
2019-01-28T06:08:13.542Z,1.90
2019-01-28T06:10:43.251Z,1.90
2019-01-28T06:13:12.953Z,1.90
2019-01-28T06:15:42.695Z,1.90
2019-01-28T06:18:12.329Z,1.90
2019-01-28T06:20:42.180Z,1.80
2019-01-28T06:23:11.848Z,2.00
2019-01-28T06:25:41.499Z,2.10
2019-01-28T06:28:11.262Z,2.10
2019-01-28T06:30:41.015Z,2.20
2019-01-28T06:33:10.736Z,2.30
2019-01-28T06:35:40.394Z,2.40
2019-01-28T06:38:10.092Z,2.50
2019-01-28T06:40:39.780Z,2.50
2019-01-28T06:43:09.468Z,2.50
2019-01-28T06:45:39.262Z,2.50
2019-01-28T06:48:09.039Z,2.40
2019-01-28T06:50:38.728Z,2.50
2019-01-28T06:53:08.598Z,2.50
2019-01-28T06:55:38.295Z,2.60
2019-01-28T06:58:08.022Z,2.70
2019-01-28T07:00:37.879Z,2.70
2019-01-28T07:03:09.102Z,2.80
2019-01-28T07:05:38.860Z,2.80
2019-01-28T07:08:08.490Z,2.90
2019-01-28T07:10:38.291Z,2.90
2019-01-28T07:13:07.980Z,3.00
2019-01-28T07:15:37.655Z,3.00
2019-01-28T07:18:07.349Z,3.10
2019-01-28T07:20:36.996Z,3.20
2019-01-28T07:23:06.807Z,3.30
2019-01-28T07:25:36.531Z,3.40
2019-01-28T07:28:06.164Z,3.50
2019-01-28T07:30:37.907Z,3.40
2019-01-28T07:33:07.719Z,3.30
2019-01-28T07:35:37.408Z,3.30
2019-01-28T07:38:07.213Z,3.20
2019-01-28T07:40:36.945Z,3.20
2019-01-28T07:43:06.598Z,3.10
2019-01-28T07:45:45.127Z,3.10
2019-01-28T07:48:09.772Z,3.10
2019-01-28T07:50:39.487Z,3.10
2019-01-28T07:53:09.315Z,3.00
2019-01-28T07:55:38.970Z,3.00
2019-01-28T07:58:08.628Z,3.20
2019-01-28T08:00:38.337Z,3.30
2019-01-28T08:03:08.284Z,3.40
2019-01-28T08:05:38.109Z,3.40
2019-01-28T08:08:07.848Z,3.60
2019-01-28T08:10:37.586Z,3.70
2019-01-28T08:13:07.470Z,3.70
2019-01-28T08:15:37.145Z,3.90
2019-01-28T08:18:10.857Z,4.00
2019-01-28T08:20:38.308Z,4.20
2019-01-28T08:23:08.142Z,4.20
2019-01-28T08:25:37.818Z,4.30
2019-01-28T08:28:07.588Z,4.50
2019-01-28T08:30:38.991Z,4.50
2019-01-28T08:33:08.662Z,4.70
2019-01-28T08:35:39.026Z,4.70
2019-01-28T08:38:08.689Z,4.80
2019-01-28T08:40:38.339Z,5.00
2019-01-28T08:43:08.024Z,5.10
2019-01-28T08:45:37.766Z,5.10
2019-01-28T08:48:07.533Z,5.30
2019-01-28T08:50:37.315Z,5.30
2019-01-28T08:53:07.194Z,5.40
2019-01-28T08:55:36.947Z,5.30
2019-01-28T08:58:06.720Z,5.30
2019-01-28T09:00:38.637Z,5.30
2019-01-28T09:03:08.484Z,5.30
2019-01-28T09:05:38.574Z,5.30
2019-01-28T09:08:09.441Z,5.30
2019-01-28T09:10:39.682Z,5.30
2019-01-28T09:13:09.677Z,5.30
2019-01-28T09:15:39.607Z,5.30
2019-01-28T09:18:12.002Z,5.30
2019-01-28T09:20:41.938Z,5.50
2019-01-28T09:23:11.908Z,5.50
2019-01-28T09:25:41.751Z,5.50
2019-01-28T09:28:11.437Z,5.50
2019-01-28T09:30:41.176Z,5.60
2019-01-28T09:33:10.943Z,5.60
2019-01-28T09:35:40.934Z,5.60
2019-01-28T09:38:10.711Z,5.50
2019-01-28T09:40:40.491Z,5.50
2019-01-28T09:43:10.989Z,5.60
2019-01-28T09:45:42.052Z,5.70
2019-01-28T09:48:14.006Z,5.80
2019-01-28T09:50:44.108Z,5.90
2019-01-28T09:53:14.848Z,6.00
2019-01-28T09:55:44.501Z,6.20
2019-01-28T09:58:14.260Z,6.40
2019-01-28T10:00:49.422Z,6.50
2019-01-28T10:03:19.319Z,6.50
2019-01-28T10:05:48.983Z,6.60
2019-01-28T10:08:18.824Z,6.50
2019-01-28T10:10:48.575Z,6.50
2019-01-28T10:13:18.424Z,6.50
2019-01-28T10:15:48.288Z,6.60
2019-01-28T10:18:18.109Z,6.60
2019-01-28T10:20:49.527Z,6.50
2019-01-28T10:23:19.224Z,6.30
2019-01-28T10:25:49.262Z,6.50
2019-01-28T10:28:18.967Z,6.50
2019-01-28T10:30:49.336Z,6.60
2019-01-28T10:33:19.155Z,6.70
2019-01-28T10:35:49.021Z,6.60
2019-01-28T10:38:22.083Z,6.60
2019-01-28T10:40:54.993Z,6.70
2019-01-28T10:43:25.997Z,6.90
2019-01-28T10:45:55.669Z,6.90
2019-01-28T10:48:25.500Z,6.80
2019-01-28T10:50:55.468Z,6.70
2019-01-28T10:53:25.174Z,6.80
2019-01-28T10:55:58.648Z,6.80
2019-01-28T10:58:28.352Z,6.90
2019-01-28T11:00:58.033Z,7.00
2019-01-28T11:03:27.949Z,7.00
2019-01-28T11:05:57.616Z,7.10
2019-01-28T11:08:27.313Z,7.20
2019-01-28T11:10:57.207Z,7.20
2019-01-28T11:13:27.024Z,7.20
2019-01-28T11:15:56.819Z,7.30
2019-01-28T11:18:28.994Z,7.10
2019-01-28T11:20:58.821Z,7.10
2019-01-28T11:23:28.562Z,7.10
2019-01-28T11:25:58.505Z,7.20
2019-01-28T11:28:28.379Z,7.20
2019-01-28T11:31:06.951Z,7.30
2019-01-28T11:33:39.457Z,7.40
2019-01-28T11:36:08.957Z,7.20
2019-01-28T11:38:38.905Z,6.90
2019-01-28T11:41:08.697Z,7.00
2019-01-28T11:43:38.546Z,7.10
2019-01-28T11:46:09.141Z,7.20
2019-01-28T11:48:39.088Z,7.30
2019-01-28T11:51:08.917Z,7.40
2019-01-28T11:53:38.560Z,7.30
2019-01-28T11:56:08.256Z,7.40
2019-01-28T11:58:38.066Z,7.50
2019-01-28T12:01:27.198Z,7.50
2019-01-28T12:03:57.057Z,7.50
2019-01-28T12:06:26.906Z,7.50
2019-01-28T12:08:56.579Z,7.50
2019-01-28T12:11:26.489Z,7.50
2019-01-28T12:13:56.231Z,7.50
2019-01-28T12:16:25.903Z,7.60
2019-01-28T12:18:55.620Z,7.60
2019-01-28T12:21:25.282Z,7.40
2019-01-28T12:23:54.951Z,7.40
2019-01-28T12:26:25.279Z,6.90
2019-01-28T12:28:54.997Z,6.90
2019-01-28T12:31:24.770Z,6.90
2019-01-28T12:33:54.503Z,7.00
2019-01-28T12:36:24.155Z,7.20
2019-01-28T12:38:53.821Z,7.30
2019-01-28T12:41:23.633Z,7.20
2019-01-28T12:43:53.339Z,7.20
2019-01-28T12:46:23.049Z,7.20
2019-01-28T12:48:52.919Z,7.20
2019-01-28T12:51:22.598Z,7.10
2019-01-28T12:53:52.252Z,7.20
2019-01-28T12:56:22.023Z,7.40
2019-01-28T12:58:51.760Z,7.50
2019-01-28T13:01:21.416Z,7.60
2019-01-28T13:03:51.157Z,7.40
2019-01-28T13:06:20.890Z,7.60
2019-01-28T13:08:50.599Z,7.80
2019-01-28T13:11:20.299Z,7.80
2019-01-28T13:13:49.998Z,7.90
2019-01-28T13:16:20.047Z,7.90
2019-01-28T13:18:49.938Z,7.90
2019-01-28T13:21:19.623Z,7.90
2019-01-28T13:23:49.272Z,7.80
2019-01-28T13:26:18.986Z,7.70
2019-01-28T13:28:48.651Z,7.60
2019-01-28T13:31:18.638Z,7.50
2019-01-28T13:33:48.368Z,7.60
2019-01-28T13:36:18.025Z,7.70
2019-01-28T13:38:47.671Z,7.80
2019-01-28T13:41:17.714Z,7.60
2019-01-28T13:43:47.377Z,7.40
2019-01-28T13:46:17.107Z,7.40
2019-01-28T13:48:46.905Z,6.90
2019-01-28T13:51:17.057Z,6.70
2019-01-28T13:53:46.811Z,6.70
2019-01-28T13:56:16.647Z,6.70
2019-01-28T13:58:46.289Z,6.60
2019-01-28T14:01:15.930Z,6.50
2019-01-28T14:03:45.798Z,6.50
2019-01-28T14:06:15.549Z,6.60
2019-01-28T14:08:46.311Z,6.50
2019-01-28T14:11:16.117Z,6.30
2019-01-28T14:13:45.820Z,6.10
2019-01-28T14:16:15.587Z,5.90
2019-01-28T14:18:45.375Z,5.60
2019-01-28T14:21:15.052Z,5.70
2019-01-28T14:23:44.766Z,5.50
2019-01-28T14:26:14.581Z,5.40
2019-01-28T14:28:44.299Z,5.40
2019-01-28T14:31:16.895Z,5.30
2019-01-28T14:33:46.644Z,5.30
2019-01-28T14:36:16.374Z,5.20
2019-01-28T14:38:46.093Z,5.10
2019-01-28T14:41:16.110Z,5.10
2019-01-28T14:43:45.835Z,5.10
2019-01-28T14:46:15.531Z,5.10
2019-01-28T14:48:49.314Z,5.20
2019-01-28T14:51:18.979Z,5.20
2019-01-28T14:53:48.695Z,5.10
2019-01-28T14:56:18.346Z,5.10
2019-01-28T14:58:48.003Z,5.00
2019-01-28T15:01:17.683Z,4.90
2019-01-28T15:03:47.313Z,4.80
2019-01-28T15:06:17.537Z,4.70
2019-01-28T15:08:47.361Z,4.60
2019-01-28T15:11:17.029Z,4.40
2019-01-28T15:13:46.970Z,4.30
2019-01-28T15:16:16.671Z,4.30
2019-01-28T15:18:46.315Z,4.20
2019-01-28T15:21:16.137Z,4.10
2019-01-28T15:23:45.800Z,4.00
2019-01-28T15:26:15.471Z,3.80
2019-01-28T15:28:45.241Z,3.70
2019-01-28T15:31:14.991Z,3.50
2019-01-28T15:33:50.443Z,3.50
2019-01-28T15:36:24.285Z,3.50
2019-01-28T15:38:54.215Z,3.40
2019-01-28T15:41:23.890Z,3.40
2019-01-28T15:43:53.622Z,3.30
2019-01-28T15:46:24.620Z,3.30
2019-01-28T15:48:54.591Z,3.30
2019-01-28T15:51:24.240Z,3.30
2019-01-28T15:53:54.233Z,3.30
2019-01-28T15:56:23.965Z,3.20
2019-01-28T15:58:53.613Z,3.10
2019-01-28T16:01:23.322Z,3.20
2019-01-28T16:03:53.339Z,3.20
2019-01-28T16:06:23.162Z,3.20
2019-01-28T16:08:52.901Z,3.10
2019-01-28T16:11:22.591Z,3.10
2019-01-28T16:13:52.307Z,3.10
2019-01-28T16:16:22.585Z,3.10
2019-01-28T16:18:52.312Z,3.20
2019-01-28T19:54:50.618Z,1.50
2019-01-28T19:57:20.326Z,1.70
2019-01-28T19:59:50.087Z,1.70
2019-01-28T20:05:07.437Z,1.60
2019-01-28T20:07:37.256Z,1.60
2019-01-28T20:10:07.982Z,1.50
2019-01-28T20:12:37.783Z,1.60
2019-01-28T20:15:08.645Z,1.50
2019-01-28T20:17:38.398Z,1.50
2019-01-28T20:20:10.756Z,1.50
2019-01-28T20:22:41.876Z,1.50
2019-01-28T20:25:14.103Z,1.70
2019-01-28T20:27:45.453Z,1.70
2019-01-28T20:30:18.646Z,1.70
2019-01-28T20:32:48.404Z,1.70
2019-01-28T20:35:18.801Z,1.70
2019-01-28T20:37:48.561Z,1.80
2019-01-28T20:40:20.703Z,1.90
2019-01-28T20:42:50.528Z,2.00
2019-01-28T20:45:21.556Z,2.20
2019-01-28T20:47:51.299Z,2.30
2019-01-28T20:50:23.438Z,2.40
2019-01-28T20:52:54.301Z,2.50
2019-01-28T20:55:24.103Z,2.50
2019-01-28T20:57:53.973Z,2.70
2019-01-28T21:00:25.493Z,2.70
2019-01-28T21:02:55.344Z,2.70
2019-01-28T21:05:26.207Z,2.70
2019-01-28T21:07:56.228Z,2.80
2019-01-28T21:10:26.334Z,2.80
2019-01-28T21:12:56.204Z,2.80
2019-01-28T21:15:27.441Z,3.00
2019-01-28T21:17:57.182Z,2.90
2019-01-28T21:20:27.301Z,2.90
2019-01-28T21:22:57.025Z,2.90
2019-01-28T21:25:27.030Z,2.80
2019-01-28T21:27:56.755Z,2.80
2019-01-28T21:30:29.043Z,2.90
2019-01-28T21:32:58.960Z,2.90
2019-01-28T21:35:51.015Z,2.90
2019-01-28T21:38:26.632Z,3.00
2019-01-28T21:40:56.458Z,2.90
2019-01-28T21:43:26.259Z,2.80
2019-01-28T21:45:56.155Z,2.80
2019-01-28T21:48:25.995Z,2.60
2019-01-28T21:50:55.734Z,2.60
2019-01-28T21:53:37.123Z,2.50
2019-01-28T21:56:07.011Z,2.40
2019-01-28T21:58:36.868Z,2.40
2019-01-28T22:01:07.584Z,2.40
2019-01-28T22:03:37.311Z,2.40
2019-01-28T22:06:07.082Z,2.50
2019-01-28T22:08:36.786Z,2.60
2019-01-28T22:11:06.745Z,2.70
2019-01-28T22:13:38.848Z,2.70
2019-01-28T22:16:08.484Z,2.70
2019-01-28T22:18:38.331Z,2.80
2019-01-28T22:21:13.415Z,2.70
2019-01-28T22:23:48.299Z,2.70
2019-01-28T22:26:18.227Z,2.70
2019-01-28T22:28:53.327Z,2.80
2019-01-28T22:31:24.333Z,2.80
2019-01-28T22:33:54.640Z,2.80
2019-01-28T22:36:24.450Z,2.70
2019-01-28T22:38:54.367Z,2.60
2019-01-28T22:41:24.148Z,2.60
2019-01-28T22:43:53.890Z,2.60
2019-01-28T22:46:23.778Z,2.60
2019-01-28T22:48:53.466Z,2.60
2019-01-28T22:51:23.240Z,2.60
2019-01-28T22:53:52.979Z,2.60
2019-01-28T22:56:22.759Z,2.60
2019-01-28T22:58:52.488Z,2.50
2019-01-28T23:01:28.073Z,2.50
2019-01-28T23:03:57.840Z,2.50
2019-01-28T23:06:27.788Z,2.50
2019-01-28T23:08:57.799Z,2.60
2019-01-28T23:11:28.614Z,2.50
2019-01-28T23:13:58.345Z,2.50
2019-01-28T23:16:28.294Z,2.60
2019-01-28T23:18:58.071Z,2.70
2019-01-28T23:21:47.407Z,2.90
2019-01-28T23:24:38.029Z,2.90
2019-01-28T23:27:20.867Z,2.90
2019-01-28T23:30:06.057Z,2.90
2019-01-28T23:32:46.621Z,2.80
2019-01-28T23:35:32.765Z,2.80
2019-01-28T23:38:02.596Z,2.80
2019-01-28T23:40:32.445Z,2.80
2019-01-28T23:43:03.247Z,2.80
2019-01-28T23:45:33.018Z,2.60
2019-01-28T23:48:02.773Z,2.60
2019-01-28T23:50:32.778Z,2.60
2019-01-28T23:53:02.504Z,2.70
2019-01-28T23:55:33.746Z,2.70
2019-01-28T23:58:11.058Z,2.80
